< < Back
Terminal Aerodrome Forecast


Current Version              Previous Versions:   1  2  3  4  5  6  7  8  9  

Terminal Aerodrome Forecast

454
FTUS42 KJAX 241100
TAFGNV
TAF
KGNV 241120Z 2412/2512 VRB02KT P6SM FEW250
     FM241600 25007KT P6SM SCT030
     FM241900 24009KT P6SM VCTS BKN050CB
     FM242200 25007KT P6SM SCT060
     FM250100 24002KT P6SM SCT250=



Latest METAR

532
SAUS70 KWBC 242300 RRE
MTRGNV
METAR KGNV 242253Z 25015KT 10SM CLR 32/22 A2997 RMK AO2 SLP144
T03170217


USA.gov is the U.S. government's official web portal to all federal, state and local government web resources and services.